Time;durP1;ratioP1;P1;durP2;ratioP2;P2;SDS_P1;SDS_P2;PMS_P1;PMS_P2;Temp;Humidity;BMP_temperature;BMP_pressure;BME280_temperature;BME280_humidity;BME280_pressure;Samples;Min_cycle;Max_cycle;Signal;HPM_P1;HPM_P2
2023/01/18 00:01:55;;;;;;;9.10;4.47;;;;;;;;;;4912153;29;20048;-85
2023/01/18 00:04:24;;;;;;;6.07;4.95;;;;;;;;;;4930391;29;20056;-84
2023/01/18 00:06:51;;;;;;;6.75;5.65;;;;;;;;;;4930748;29;20048;-85
2023/01/18 00:09:21;;;;;;;5.72;4.18;;;;;;;;;;4912628;29;20056;-85
2023/01/18 00:11:52;;;;;;;7.15;6.00;;;;;;;;;;4888409;29;20058;-85
2023/01/18 00:14:19;;;;;;;8.52;4.68;;;;;;;;;;4916271;29;20047;-85
2023/01/18 00:16:47;;;;;;;9.43;4.35;;;;;;;;;;4930921;29;20054;-85
2023/01/18 00:19:14;;;;;;;4.72;4.18;;;;;;;;;;4925852;29;20056;-85
2023/01/18 00:21:41;;;;;;;5.20;4.03;;;;;;;;;;4896171;29;20047;-85
2023/01/18 00:24:13;;;;;;;5.53;4.05;;;;;;;;;;4924076;29;20060;-85
2023/01/18 00:26:43;;;;;;;5.88;4.28;;;;;;;;;;4927516;29;20043;-85
2023/01/18 00:29:14;;;;;;;3.97;3.33;;;;;;;;;;4898698;29;20500;-84
2023/01/18 00:31:42;;;;;;;5.30;4.82;;;;;;;;;;4890692;29;20045;-85
2023/01/18 00:34:10;;;;;;;4.88;3.80;;;;;;;;;;4916773;29;20502;-85
2023/01/18 00:36:39;;;;;;;14.95;4.20;;;;;;;;;;4929748;29;20051;-85
2023/01/18 00:39:09;;;;;;;6.80;4.43;;;;;;;;;;4923945;29;20044;-85
2023/01/18 00:43:37;;;;;;;6.50;3.95;;;;;;;;;;4916260;29;20059;-85
2023/01/18 00:44:27;;;;;;;4.88;3.60;;;;;;;;;;4908937;29;20066;-85
2023/01/18 00:46:57;;;;;;;6.65;3.42;;;;;;;;;;4949130;23;20059;-87
2023/01/18 00:49:24;;;;;;;4.68;4.20;;;;;;;;;;4914713;29;20052;-87
2023/01/18 00:51:52;;;;;;;7.72;5.22;;;;;;;;;;4930669;29;20424;-87
2023/01/18 00:54:19;;;;;;;7.13;5.05;;;;;;;;;;4929576;29;20709;-88
2023/01/18 00:56:46;;;;;;;4.45;4.05;;;;;;;;;;4913659;29;20525;-87
2023/01/18 00:59:13;;;;;;;6.18;3.70;;;;;;;;;;4933781;29;20056;-87
2023/01/18 01:01:43;;;;;;;6.95;4.13;;;;;;;;;;4927933;29;20044;-87
2023/01/18 01:06:55;;;;;;;7.40;4.63;;;;;;;;;;4926939;29;20051;-87
2023/01/18 01:09:26;;;;;;;4.63;3.28;;;;;;;;;;4926537;29;20056;-88
2023/01/18 01:26:07;;;;;;;5.10;3.63;;;;;;;;;;4931366;28;20446;-87
2023/01/18 01:28:36;;;;;;;3.53;3.22;;;;;;;;;;4930107;29;20071;-87
2023/01/18 01:31:08;;;;;;;5.93;4.07;;;;;;;;;;4931593;29;20395;-87
2023/01/18 01:33:37;;;;;;;7.63;4.63;;;;;;;;;;4914865;29;20536;-87
2023/01/18 01:36:08;;;;;;;5.03;4.25;;;;;;;;;;4932085;29;20073;-87
2023/01/18 01:38:40;;;;;;;6.13;4.57;;;;;;;;;;4915457;29;20055;-87
2023/01/18 01:41:08;;;;;;;4.22;3.38;;;;;;;;;;4926202;29;20044;-88
2023/01/18 01:43:41;;;;;;;6.95;3.70;;;;;;;;;;4930472;29;20074;-87
2023/01/18 01:46:16;;;;;;;6.33;3.60;;;;;;;;;;4926002;29;20062;-87
2023/01/18 01:48:47;;;;;;;9.18;3.78;;;;;;;;;;4911551;29;20057;-87
2023/01/18 01:51:15;;;;;;;4.70;3.70;;;;;;;;;;4924993;29;20399;-87
2023/01/18 01:53:44;;;;;;;5.05;4.45;;;;;;;;;;4931970;29;20055;-87
2023/01/18 01:56:11;;;;;;;6.63;3.88;;;;;;;;;;4927624;29;20051;-87
2023/01/18 01:58:39;;;;;;;5.18;4.68;;;;;;;;;;4924345;29;20502;-88
2023/01/18 02:01:07;;;;;;;5.88;3.58;;;;;;;;;;4928353;29;20051;-87
2023/01/18 02:03:39;;;;;;;11.20;3.85;;;;;;;;;;4937470;29;20051;-87
2023/01/18 02:06:13;;;;;;;6.78;3.22;;;;;;;;;;4911562;29;20426;-87
2023/01/18 02:08:41;;;;;;;5.70;3.53;;;;;;;;;;4928858;29;20434;-88
2023/01/18 02:11:10;;;;;;;3.78;3.10;;;;;;;;;;4924213;29;20741;-87
2023/01/18 02:13:42;;;;;;;4.40;3.28;;;;;;;;;;4935477;29;20060;-87
2023/01/18 02:16:15;;;;;;;5.72;4.45;;;;;;;;;;4928068;29;20043;-87
2023/01/18 02:18:47;;;;;;;3.95;2.67;;;;;;;;;;4927893;29;20055;-87
2023/01/18 02:21:18;;;;;;;4.65;4.07;;;;;;;;;;4927111;29;20058;-87
2023/01/18 02:24:25;;;;;;;5.85;4.97;;;;;;;;;;4922011;29;20047;-87
2023/01/18 02:26:57;;;;;;;4.80;3.17;;;;;;;;;;4926315;29;20066;-87
2023/01/18 02:29:33;;;;;;;4.72;3.53;;;;;;;;;;4920013;29;20380;-87
2023/01/18 02:32:14;;;;;;;6.60;3.88;;;;;;;;;;4912270;29;20048;-87
2023/01/18 02:34:44;;;;;;;5.22;4.07;;;;;;;;;;4932169;29;20048;-87
2023/01/18 02:37:19;;;;;;;7.70;4.45;;;;;;;;;;4928196;29;20055;-87
2023/01/18 02:39:59;;;;;;;6.75;4.93;;;;;;;;;;4925170;29;20051;-87
2023/01/18 02:48:06;;;;;;;5.25;4.38;;;;;;;;;;4931959;29;20060;-87
2023/01/18 02:50:38;;;;;;;5.70;4.90;;;;;;;;;;4924111;29;20054;-87
2023/01/18 02:53:10;;;;;;;5.00;4.00;;;;;;;;;;4922243;29;20056;-87
2023/01/18 02:55:48;;;;;;;5.28;3.40;;;;;;;;;;4928825;29;20591;-87
2023/01/18 02:58:20;;;;;;;4.28;3.58;;;;;;;;;;4921282;29;20565;-88
2023/01/18 03:00:53;;;;;;;8.45;4.90;;;;;;;;;;4925395;29;20054;-88
2023/01/18 03:03:21;;;;;;;4.53;3.30;;;;;;;;;;4925751;29;20052;-87
2023/01/18 03:05:51;;;;;;;5.47;3.92;;;;;;;;;;4926150;29;20391;-87
2023/01/18 03:08:22;;;;;;;6.28;4.32;;;;;;;;;;4927816;29;20043;-87
2023/01/18 03:10:57;;;;;;;6.78;4.47;;;;;;;;;;4935556;29;20048;-87
2023/01/18 03:13:40;;;;;;;6.07;4.43;;;;;;;;;;4932934;29;20047;-87
2023/01/18 03:16:18;;;;;;;5.43;3.70;;;;;;;;;;4935985;29;20051;-87
2023/01/18 03:21:42;;;;;;;6.15;4.20;;;;;;;;;;4928989;29;20043;-87
2023/01/18 03:24:09;;;;;;;5.45;4.53;;;;;;;;;;4939150;29;20164;-87
2023/01/18 03:26:40;;;;;;;5.20;3.88;;;;;;;;;;4933263;29;20054;-87
2023/01/18 03:34:52;;;;;;;10.07;4.70;;;;;;;;;;4931453;29;20051;-87
2023/01/18 03:37:22;;;;;;;6.57;4.38;;;;;;;;;;4937151;29;20052;-87
2023/01/18 03:39:52;;;;;;;6.20;4.28;;;;;;;;;;4932885;29;20391;-87
2023/01/18 03:42:26;;;;;;;7.00;4.18;;;;;;;;;;4930426;29;20050;-87
2023/01/18 03:44:55;;;;;;;4.85;4.00;;;;;;;;;;4927405;29;20068;-87
2023/01/18 03:47:26;;;;;;;5.40;3.53;;;;;;;;;;4932394;29;20405;-87
2023/01/18 03:49:53;;;;;;;5.97;4.25;;;;;;;;;;4930154;29;20060;-87
2023/01/18 03:52:24;;;;;;;5.18;3.90;;;;;;;;;;4929471;29;20064;-87
2023/01/18 03:55:00;;;;;;;5.60;3.92;;;;;;;;;;4935451;29;20060;-87
2023/01/18 03:57:34;;;;;;;5.18;4.45;;;;;;;;;;4914896;29;20679;-87
2023/01/18 04:00:04;;;;;;;7.38;4.95;;;;;;;;;;4932423;29;20063;-87
2023/01/18 04:02:43;;;;;;;5.93;4.75;;;;;;;;;;4930864;29;20047;-87
2023/01/18 04:05:16;;;;;;;4.53;3.95;;;;;;;;;;4928894;29;20073;-87
2023/01/18 04:07:43;;;;;;;8.15;4.75;;;;;;;;;;4932156;29;20055;-87
2023/01/18 04:10:11;;;;;;;6.63;5.07;;;;;;;;;;4922924;29;20051;-88
2023/01/18 04:12:38;;;;;;;5.20;4.70;;;;;;;;;;4927685;29;20048;-86
2023/01/18 04:15:09;;;;;;;4.80;3.90;;;;;;;;;;4929514;29;20051;-87
2023/01/18 04:17:36;;;;;;;6.20;4.70;;;;;;;;;;4932431;29;20055;-86
2023/01/18 04:20:06;;;;;;;6.63;4.53;;;;;;;;;;4929804;29;20046;-87
2023/01/18 04:22:34;;;;;;;4.55;4.15;;;;;;;;;;4924038;29;20051;-87
2023/01/18 04:25:01;;;;;;;6.80;4.78;;;;;;;;;;4927806;29;20043;-87
2023/01/18 04:27:28;;;;;;;5.57;5.07;;;;;;;;;;4941345;29;20074;-86
2023/01/18 04:29:58;;;;;;;7.97;4.35;;;;;;;;;;4930864;29;20078;-87
2023/01/18 04:32:25;;;;;;;6.28;3.90;;;;;;;;;;4932238;29;20446;-86
2023/01/18 04:34:54;;;;;;;6.93;5.50;;;;;;;;;;4929176;29;20566;-86
2023/01/18 04:37:29;;;;;;;4.78;3.75;;;;;;;;;;4929319;29;20070;-86
2023/01/18 04:39:56;;;;;;;6.75;3.38;;;;;;;;;;4931852;29;20055;-86
2023/01/18 04:42:24;;;;;;;7.32;5.75;;;;;;;;;;4937736;29;20074;-86
2023/01/18 04:44:51;;;;;;;5.68;4.85;;;;;;;;;;4938608;28;20126;-86
2023/01/18 04:47:21;;;;;;;6.10;3.97;;;;;;;;;;4915358;29;20051;-87
2023/01/18 04:49:48;;;;;;;6.07;4.60;;;;;;;;;;4911978;29;20066;-86
2023/01/18 04:52:15;;;;;;;11.02;4.82;;;;;;;;;;4935860;29;20055;-87
2023/01/18 04:54:46;;;;;;;4.63;3.83;;;;;;;;;;4927518;29;20044;-87
2023/01/18 04:57:13;;;;;;;5.25;3.97;;;;;;;;;;4937247;29;20047;-87
2023/01/18 04:59:44;;;;;;;5.53;4.20;;;;;;;;;;4923626;29;20379;-87
2023/01/18 05:02:12;;;;;;;5.85;4.57;;;;;;;;;;4931322;29;20054;-87
2023/01/18 05:04:39;;;;;;;9.57;4.85;;;;;;;;;;4929767;29;20056;-86
2023/01/18 05:07:06;;;;;;;3.60;3.30;;;;;;;;;;4941392;28;20409;-84
2023/01/18 05:09:33;;;;;;;5.70;4.45;;;;;;;;;;4935900;29;20048;-83
2023/01/18 05:12:02;;;;;;;8.30;5.10;;;;;;;;;;4934359;29;20227;-83
2023/01/18 05:14:32;;;;;;;7.00;4.75;;;;;;;;;;4930180;29;20054;-83
2023/01/18 05:16:59;;;;;;;9.02;6.30;;;;;;;;;;4919952;29;20419;-83
2023/01/18 05:19:29;;;;;;;11.07;7.18;;;;;;;;;;4910724;29;20059;-83
2023/01/18 05:21:58;;;;;;;9.68;6.93;;;;;;;;;;4928853;29;20059;-83
2023/01/18 05:24:29;;;;;;;8.85;7.80;;;;;;;;;;4926221;29;20403;-84
2023/01/18 05:26:58;;;;;;;12.02;10.50;;;;;;;;;;4922843;29;20439;-83
2023/01/18 05:29:27;;;;;;;17.80;10.80;;;;;;;;;;4934163;29;20055;-83
2023/01/18 05:31:56;;;;;;;14.23;10.48;;;;;;;;;;4934822;29;20051;-83
2023/01/18 05:34:24;;;;;;;12.75;9.60;;;;;;;;;;4941845;29;20043;-83
2023/01/18 05:36:51;;;;;;;9.98;8.95;;;;;;;;;;4947080;28;20046;-83
2023/01/18 05:39:20;;;;;;;11.35;8.43;;;;;;;;;;4929107;29;20067;-83
2023/01/18 05:41:47;;;;;;;13.75;8.63;;;;;;;;;;4952772;28;20051;-83
2023/01/18 05:44:17;;;;;;;10.43;8.10;;;;;;;;;;4940761;29;20058;-83
2023/01/18 05:46:48;;;;;;;10.88;8.80;;;;;;;;;;4914105;29;20392;-83
2023/01/18 05:49:17;;;;;;;14.10;8.68;;;;;;;;;;4947509;29;20405;-84
2023/01/18 05:51:47;;;;;;;10.65;7.57;;;;;;;;;;4939446;29;20058;-83
2023/01/18 05:54:14;;;;;;;12.07;8.80;;;;;;;;;;4919500;29;20067;-83
2023/01/18 05:56:42;;;;;;;11.50;8.25;;;;;;;;;;4912506;29;20510;-83
2023/01/18 05:59:09;;;;;;;8.43;7.47;;;;;;;;;;4921480;28;20533;-84
2023/01/18 06:01:36;;;;;;;9.15;8.23;;;;;;;;;;4917497;29;20047;-83
2023/01/18 06:04:05;;;;;;;12.63;9.85;;;;;;;;;;4915098;29;20052;-83
2023/01/18 06:06:32;;;;;;;10.68;8.77;;;;;;;;;;4914681;29;20059;-83
2023/01/18 06:09:00;;;;;;;12.40;9.10;;;;;;;;;;4912976;29;20059;-84
2023/01/18 06:11:28;;;;;;;15.73;10.27;;;;;;;;;;4914759;29;20048;-83
2023/01/18 06:13:57;;;;;;;12.18;9.20;;;;;;;;;;4900820;29;20062;-83
2023/01/18 06:16:24;;;;;;;12.88;9.60;;;;;;;;;;4912424;29;20598;-84
2023/01/18 06:18:54;;;;;;;11.77;9.85;;;;;;;;;;4911597;29;20059;-83
2023/01/18 06:21:23;;;;;;;11.27;9.13;;;;;;;;;;4918574;29;20039;-84
2023/01/18 06:23:50;;;;;;;12.70;10.75;;;;;;;;;;4933348;29;20052;-83
2023/01/18 06:26:22;;;;;;;12.02;10.68;;;;;;;;;;4938427;29;20053;-83
2023/01/18 06:28:54;;;;;;;13.95;11.82;;;;;;;;;;4945784;29;20055;-82
2023/01/18 06:31:24;;;;;;;13.10;9.95;;;;;;;;;;4942792;29;21043;-83
2023/01/18 06:33:53;;;;;;;11.63;9.40;;;;;;;;;;4928570;29;20059;-83
2023/01/18 06:36:21;;;;;;;10.07;9.07;;;;;;;;;;4908060;29;20048;-83
2023/01/18 06:38:52;;;;;;;10.20;9.20;;;;;;;;;;4929243;29;20773;-84
2023/01/18 06:41:19;;;;;;;10.77;8.70;;;;;;;;;;4928324;29;20046;-83
2023/01/18 06:43:49;;;;;;;14.90;11.10;;;;;;;;;;4912840;29;20066;-83
2023/01/18 06:50:18;;;;;;;9.95;8.00;;;;;;;;;;4871083;29;20047;-80
2023/01/18 06:52:48;;;;;;;10.23;8.45;;;;;;;;;;4932005;29;20479;-80
2023/01/18 06:55:18;;;;;;;11.40;9.40;;;;;;;;;;4915810;29;20391;-82
2023/01/18 06:57:47;;;;;;;10.95;8.82;;;;;;;;;;4914825;29;20055;-82
2023/01/18 07:00:16;;;;;;;9.07;8.20;;;;;;;;;;4912494;29;20063;-82
2023/01/18 07:02:43;;;;;;;11.80;10.60;;;;;;;;;;4889712;29;20052;-82
2023/01/18 07:05:11;;;;;;;11.30;8.98;;;;;;;;;;4907999;29;20764;-82
2023/01/18 07:07:38;;;;;;;9.85;8.68;;;;;;;;;;4910307;29;20055;-82
2023/01/18 07:10:06;;;;;;;10.15;9.10;;;;;;;;;;4912474;29;20068;-82
2023/01/18 07:12:35;;;;;;;18.70;10.88;;;;;;;;;;4911165;29;20048;-82
2023/01/18 07:15:04;;;;;;;10.85;9.15;;;;;;;;;;4906351;29;20063;-82
2023/01/18 07:17:32;;;;;;;11.43;10.27;;;;;;;;;;4908321;29;20044;-82
2023/01/18 07:19:59;;;;;;;19.35;11.27;;;;;;;;;;4891287;29;20056;-82
2023/01/18 07:22:26;;;;;;;22.52;13.45;;;;;;;;;;4908378;29;20059;-82
2023/01/18 07:24:54;;;;;;;21.42;15.45;;;;;;;;;;4882904;29;20060;-82
2023/01/18 07:27:21;;;;;;;17.17;12.02;;;;;;;;;;4886469;29;20048;-82
2023/01/18 07:29:50;;;;;;;13.20;11.13;;;;;;;;;;4894497;29;20059;-82
2023/01/18 07:32:17;;;;;;;13.77;11.00;;;;;;;;;;4876743;29;20083;-82
2023/01/18 07:34:44;;;;;;;12.27;8.80;;;;;;;;;;4893788;29;20491;-82
2023/01/18 07:37:12;;;;;;;11.68;10.07;;;;;;;;;;4892963;29;20056;-82
2023/01/18 07:39:39;;;;;;;13.63;9.13;;;;;;;;;;4909090;29;20056;-82
2023/01/18 07:42:06;;;;;;;13.25;8.95;;;;;;;;;;4894699;29;20067;-82
2023/01/18 07:44:34;;;;;;;9.60;8.27;;;;;;;;;;4899523;29;20044;-82
2023/01/18 07:47:03;;;;;;;11.68;10.30;;;;;;;;;;4896090;29;21039;-82
2023/01/18 07:49:30;;;;;;;11.48;10.30;;;;;;;;;;4893715;29;20077;-82
2023/01/18 07:51:57;;;;;;;18.27;11.90;;;;;;;;;;4897434;29;20063;-82
2023/01/18 07:54:25;;;;;;;12.18;10.05;;;;;;;;;;4896871;29;20064;-82
2023/01/18 07:56:53;;;;;;;11.00;8.88;;;;;;;;;;4897421;29;20408;-82
2023/01/18 07:59:20;;;;;;;14.40;11.13;;;;;;;;;;4898234;29;20052;-82
2023/01/18 08:01:48;;;;;;;13.60;12.00;;;;;;;;;;4899132;29;20056;-82
2023/01/18 08:04:16;;;;;;;13.93;10.40;;;;;;;;;;4899856;29;20185;-82
2023/01/18 08:06:45;;;;;;;15.98;12.45;;;;;;;;;;4898773;29;20416;-82
2023/01/18 08:09:12;;;;;;;15.77;12.20;;;;;;;;;;4897845;29;20060;-82
2023/01/18 08:11:39;;;;;;;14.05;11.75;;;;;;;;;;4902309;29;20055;-82
2023/01/18 08:14:07;;;;;;;13.18;10.70;;;;;;;;;;4900939;29;20059;-82
2023/01/18 08:16:36;;;;;;;14.82;11.57;;;;;;;;;;4899814;29;20063;-82
2023/01/18 08:19:04;;;;;;;10.60;8.25;;;;;;;;;;4898853;29;20056;-82
2023/01/18 08:21:32;;;;;;;13.18;10.75;;;;;;;;;;4900746;29;20063;-82
2023/01/18 08:24:00;;;;;;;13.55;12.15;;;;;;;;;;4899646;29;20498;-82
2023/01/18 08:26:27;;;;;;;14.27;10.60;;;;;;;;;;4901539;29;20040;-83
2023/01/18 08:28:55;;;;;;;19.75;14.75;;;;;;;;;;4898884;29;20052;-82
2023/01/18 08:31:22;;;;;;;13.65;11.88;;;;;;;;;;4914847;29;20478;-82
2023/01/18 08:33:49;;;;;;;15.73;12.15;;;;;;;;;;4911449;29;20051;-83
2023/01/18 08:36:19;;;;;;;13.50;11.02;;;;;;;;;;4910568;29;20044;-83
2023/01/18 08:38:49;;;;;;;12.40;10.15;;;;;;;;;;4914890;29;20048;-83
2023/01/18 08:41:17;;;;;;;12.85;10.77;;;;;;;;;;4915121;29;20044;-83
2023/01/18 08:43:46;;;;;;;15.25;11.30;;;;;;;;;;4916449;29;20491;-83
2023/01/18 08:46:14;;;;;;;12.15;9.02;;;;;;;;;;4907314;29;20048;-82
2023/01/18 08:48:42;;;;;;;13.20;10.85;;;;;;;;;;4915174;29;20055;-82
2023/01/18 08:51:10;;;;;;;17.13;11.20;;;;;;;;;;4913655;29;20051;-82
2023/01/18 08:53:37;;;;;;;12.73;7.20;;;;;;;;;;4913261;29;20044;-82
2023/01/18 08:56:07;;;;;;;12.40;9.05;;;;;;;;;;4912516;29;20048;-82
2023/01/18 08:58:34;;;;;;;10.50;7.93;;;;;;;;;;4906898;29;20048;-82
2023/01/18 09:01:04;;;;;;;11.73;9.50;;;;;;;;;;4909194;29;20052;-82
2023/01/18 09:03:32;;;;;;;13.52;9.32;;;;;;;;;;4914529;29;20055;-82
2023/01/18 09:06:00;;;;;;;15.90;9.55;;;;;;;;;;4911861;29;20044;-82
2023/01/18 09:08:28;;;;;;;15.07;10.18;;;;;;;;;;4898458;29;20514;-82
2023/01/18 09:10:55;;;;;;;9.98;7.82;;;;;;;;;;4911985;29;20055;-82
2023/01/18 09:13:24;;;;;;;11.02;8.32;;;;;;;;;;4913207;29;20051;-82
2023/01/18 09:15:58;;;;;;;10.93;8.15;;;;;;;;;;4913317;29;20060;-82
2023/01/18 09:18:25;;;;;;;13.85;9.25;;;;;;;;;;4912353;29;20062;-81
2023/01/18 09:20:54;;;;;;;8.40;7.35;;;;;;;;;;4911597;29;20048;-82
2023/01/18 09:23:21;;;;;;;9.60;6.47;;;;;;;;;;4910767;29;20052;-82
2023/01/18 09:25:49;;;;;;;13.15;8.70;;;;;;;;;;4909507;29;20048;-82
2023/01/18 09:28:17;;;;;;;13.18;7.55;;;;;;;;;;4914549;29;20052;-82
2023/01/18 09:30:45;;;;;;;9.18;7.38;;;;;;;;;;4912705;29;20056;-82
2023/01/18 09:33:13;;;;;;;8.85;7.32;;;;;;;;;;4916733;29;20044;-82
2023/01/18 09:35:40;;;;;;;9.05;6.50;;;;;;;;;;4909116;29;20609;-82
2023/01/18 09:38:11;;;;;;;9.73;7.88;;;;;;;;;;4908376;29;20044;-82
2023/01/18 09:40:43;;;;;;;8.48;7.10;;;;;;;;;;4912348;29;20064;-82
2023/01/18 09:43:17;;;;;;;10.57;7.70;;;;;;;;;;4914011;29;20059;-82
2023/01/18 09:45:46;;;;;;;9.77;7.78;;;;;;;;;;4914468;29;20047;-82
2023/01/18 09:48:20;;;;;;;7.20;6.28;;;;;;;;;;4910534;29;20067;-82
2023/01/18 09:50:47;;;;;;;7.97;6.20;;;;;;;;;;4913607;29;20071;-82
2023/01/18 09:53:22;;;;;;;6.90;5.15;;;;;;;;;;4898585;29;20055;-82
2023/01/18 09:55:55;;;;;;;12.73;8.15;;;;;;;;;;4911253;29;20412;-82
2023/01/18 09:58:33;;;;;;;11.93;7.32;;;;;;;;;;4906659;29;20655;-82
2023/01/18 10:01:06;;;;;;;14.07;5.65;;;;;;;;;;4907002;29;20059;-82
2023/01/18 10:03:44;;;;;;;7.43;5.72;;;;;;;;;;4905716;29;20055;-82
2023/01/18 10:06:17;;;;;;;9.23;5.40;;;;;;;;;;4911594;29;20051;-82
2023/01/18 10:08:52;;;;;;;6.07;5.40;;;;;;;;;;4908702;29;20055;-82
2023/01/18 10:11:22;;;;;;;12.82;6.68;;;;;;;;;;4909683;29;20503;-82
2023/01/18 10:13:54;;;;;;;8.80;5.15;;;;;;;;;;4906396;29;20048;-82
2023/01/18 10:16:24;;;;;;;4.55;4.13;;;;;;;;;;4911894;29;20048;-83
2023/01/18 10:18:54;;;;;;;6.88;6.03;;;;;;;;;;4913916;29;20533;-82
2023/01/18 10:21:29;;;;;;;6.47;5.35;;;;;;;;;;4909610;29;20826;-82
2023/01/18 10:24:10;;;;;;;9.15;5.60;;;;;;;;;;4912783;29;20063;-82
2023/01/18 10:26:39;;;;;;;10.07;6.07;;;;;;;;;;4910057;29;20049;-83
2023/01/18 10:29:13;;;;;;;9.30;5.97;;;;;;;;;;4912904;29;20044;-82
2023/01/18 10:31:47;;;;;;;9.75;6.43;;;;;;;;;;4902070;29;20059;-82
2023/01/18 10:34:18;;;;;;;7.43;5.88;;;;;;;;;;4909060;29;20602;-82
2023/01/18 10:36:54;;;;;;;9.73;5.95;;;;;;;;;;4903463;29;20056;-82
2023/01/18 10:39:27;;;;;;;8.35;5.65;;;;;;;;;;4913466;29;20438;-83
2023/01/18 10:41:57;;;;;;;8.55;6.57;;;;;;;;;;4915787;29;20048;-82
2023/01/18 10:44:25;;;;;;;7.63;5.22;;;;;;;;;;4910550;29;20418;-82
2023/01/18 10:46:57;;;;;;;6.43;5.07;;;;;;;;;;4914225;29;20067;-82
2023/01/18 10:49:36;;;;;;;5.05;4.47;;;;;;;;;;4913109;29;20090;-82
2023/01/18 10:52:26;;;;;;;9.07;5.90;;;;;;;;;;4891008;29;20044;-82
2023/01/18 10:54:56;;;;;;;7.75;4.93;;;;;;;;;;4894954;29;20047;-82
2023/01/18 10:57:29;;;;;;;8.85;4.40;;;;;;;;;;4906780;29;20048;-82
2023/01/18 10:59:57;;;;;;;7.50;4.07;;;;;;;;;;4912544;29;20048;-82
2023/01/18 11:02:29;;;;;;;4.57;3.92;;;;;;;;;;4915316;29;20059;-82
2023/01/18 11:05:00;;;;;;;6.57;4.35;;;;;;;;;;4901724;29;20048;-82
2023/01/18 11:07:29;;;;;;;5.30;4.03;;;;;;;;;;4906046;29;20048;-82
2023/01/18 11:09:58;;;;;;;5.50;3.10;;;;;;;;;;4910981;29;20052;-81
2023/01/18 11:12:40;;;;;;;5.35;3.22;;;;;;;;;;4895760;29;20610;-81
2023/01/18 11:15:30;;;;;;;5.60;4.57;;;;;;;;;;4908186;29;20040;-80
2023/01/18 11:18:19;;;;;;;4.40;3.55;;;;;;;;;;4906325;29;20514;-80
2023/01/18 11:20:48;;;;;;;7.05;3.78;;;;;;;;;;4908238;29;20064;-80
2023/01/18 11:23:19;;;;;;;8.45;4.25;;;;;;;;;;4904905;29;20051;-80
2023/01/18 11:25:52;;;;;;;5.65;4.43;;;;;;;;;;4911475;29;20064;-81
2023/01/18 11:28:22;;;;;;;3.75;3.30;;;;;;;;;;4907899;29;20048;-80
2023/01/18 11:30:54;;;;;;;5.68;2.60;;;;;;;;;;4898170;29;20499;-81
2023/01/18 11:33:24;;;;;;;6.20;3.85;;;;;;;;;;4915402;29;20036;-81
2023/01/18 11:35:54;;;;;;;6.05;3.50;;;;;;;;;;4915123;29;20059;-81
2023/01/18 11:38:29;;;;;;;5.57;3.22;;;;;;;;;;4916362;29;20052;-81
2023/01/18 11:41:15;;;;;;;5.85;3.30;;;;;;;;;;4914336;29;20055;-81
2023/01/18 11:43:53;;;;;;;6.70;3.78;;;;;;;;;;4913788;29;20060;-81
2023/01/18 11:46:38;;;;;;;9.02;3.85;;;;;;;;;;4912396;29;20200;-81
2023/01/18 11:49:22;;;;;;;3.25;2.90;;;;;;;;;;4911844;29;20619;-81
2023/01/18 11:51:52;;;;;;;3.20;2.83;;;;;;;;;;4915922;29;20071;-81
2023/01/18 11:54:25;;;;;;;3.30;2.80;;;;;;;;;;4915347;29;20048;-81
2023/01/18 11:56:58;;;;;;;4.88;3.25;;;;;;;;;;4916806;29;20060;-83
2023/01/18 11:59:28;;;;;;;7.47;3.78;;;;;;;;;;4913839;29;20052;-81
2023/01/18 12:02:12;;;;;;;4.15;3.17;;;;;;;;;;4917397;29;20060;-81
2023/01/18 12:04:50;;;;;;;3.85;2.35;;;;;;;;;;4912880;29;20052;-81
2023/01/18 12:07:28;;;;;;;3.35;2.63;;;;;;;;;;4912026;29;20049;-81
2023/01/18 12:09:56;;;;;;;3.70;2.80;;;;;;;;;;4913073;29;20614;-81
2023/01/18 12:12:36;;;;;;;4.10;2.95;;;;;;;;;;4912281;29;20052;-81
2023/01/18 12:15:17;;;;;;;5.13;3.55;;;;;;;;;;4905459;29;20055;-81
2023/01/18 12:17:54;;;;;;;4.93;2.85;;;;;;;;;;4896522;29;20411;-82
2023/01/18 12:20:27;;;;;;;3.95;3.03;;;;;;;;;;4912651;29;20056;-82
2023/01/18 12:23:19;;;;;;;4.78;3.28;;;;;;;;;;4899185;29;20056;-82
2023/01/18 12:26:15;;;;;;;5.35;3.30;;;;;;;;;;4898518;29;20075;-82
2023/01/18 12:28:55;;;;;;;6.43;4.43;;;;;;;;;;4917878;29;20060;-82
2023/01/18 12:31:31;;;;;;;3.45;2.20;;;;;;;;;;4914375;29;20407;-82
2023/01/18 12:34:04;;;;;;;4.32;2.95;;;;;;;;;;4915679;29;20507;-82
2023/01/18 12:37:02;;;;;;;4.80;3.35;;;;;;;;;;4912952;29;20059;-82
2023/01/18 12:39:44;;;;;;;6.38;2.97;;;;;;;;;;4905768;29;20052;-82
2023/01/18 12:42:18;;;;;;;5.70;2.95;;;;;;;;;;4908668;29;20060;-82
2023/01/18 12:44:54;;;;;;;5.38;2.70;;;;;;;;;;4916556;29;20048;-82
2023/01/18 12:50:31;;;;;;;4.78;3.20;;;;;;;;;;4937095;29;20405;-88
2023/01/18 12:53:04;;;;;;;7.72;3.72;;;;;;;;;;4915022;29;20870;-86
2023/01/18 12:55:33;;;;;;;4.00;2.70;;;;;;;;;;4898758;29;20060;-87
2023/01/18 12:58:05;;;;;;;4.18;2.78;;;;;;;;;;4896588;29;20527;-87
2023/01/18 13:00:37;;;;;;;6.40;3.95;;;;;;;;;;4913815;29;20071;-86
2023/01/18 13:03:10;;;;;;;5.35;4.75;;;;;;;;;;4900098;29;20060;-86
2023/01/18 13:05:49;;;;;;;5.00;3.53;;;;;;;;;;4894825;29;20052;-87
2023/01/18 13:08:23;;;;;;;4.97;3.50;;;;;;;;;;4899225;29;20422;-87
2023/01/18 13:10:53;;;;;;;6.47;4.00;;;;;;;;;;4898404;29;20056;-86
2023/01/18 13:13:25;;;;;;;8.85;3.67;;;;;;;;;;4914199;29;20052;-88
2023/01/18 13:16:00;;;;;;;14.50;3.58;;;;;;;;;;4914569;29;20406;-87
2023/01/18 13:18:30;;;;;;;;;;;;;;;;;;4916450;29;20044;-87
2023/01/18 13:21:08;;;;;;;5.38;2.97;;;;;;;;;;4898001;29;19930;-86
2023/01/18 13:23:47;;;;;;;4.78;3.85;;;;;;;;;;4914543;29;20048;-86
2023/01/18 13:26:23;;;;;;;4.47;3.45;;;;;;;;;;4913739;29;20048;-86
2023/01/18 13:29:06;;;;;;;5.93;2.90;;;;;;;;;;4911365;29;20498;-86
2023/01/18 13:31:36;;;;;;;4.35;3.08;;;;;;;;;;4900113;29;20056;-87
2023/01/18 13:34:04;;;;;;;3.85;2.90;;;;;;;;;;4889856;29;20056;-87
2023/01/18 13:36:45;;;;;;;5.65;3.10;;;;;;;;;;4900289;29;20048;-87
2023/01/18 13:39:21;;;;;;;5.07;3.00;;;;;;;;;;4901001;29;20048;-86
2023/01/18 13:42:25;;;;;;;7.47;3.65;;;;;;;;;;4899540;29;20052;-87
2023/01/18 13:45:15;;;;;;;6.30;3.95;;;;;;;;;;4870207;29;20060;-87
2023/01/18 13:48:06;;;;;;;4.20;2.78;;;;;;;;;;4864765;29;20044;-87
2023/01/18 13:50:46;;;;;;;3.72;3.30;;;;;;;;;;4888988;29;20052;-87
2023/01/18 13:53:26;;;;;;;4.20;3.42;;;;;;;;;;4914262;29;20051;-87
2023/01/18 13:56:24;;;;;;;6.10;4.65;;;;;;;;;;4898738;29;20055;-87
2023/01/18 13:58:58;;;;;;;4.28;3.20;;;;;;;;;;4886279;29;20064;-87
2023/01/18 14:01:35;;;;;;;5.22;3.33;;;;;;;;;;4899669;29;20055;-87
2023/01/18 14:04:23;;;;;;;5.55;3.90;;;;;;;;;;4892656;29;20055;-87
2023/01/18 14:06:55;;;;;;;6.00;4.22;;;;;;;;;;4898678;29;20421;-88
2023/01/18 14:09:40;;;;;;;6.65;3.63;;;;;;;;;;4896060;29;20051;-86
2023/01/18 14:12:08;;;;;;;5.63;4.55;;;;;;;;;;4914814;29;20048;-87
2023/01/18 14:14:59;;;;;;;8.55;4.30;;;;;;;;;;4913073;29;20059;-87
2023/01/18 14:17:27;;;;;;;10.98;5.38;;;;;;;;;;4896895;29;20417;-86
2023/01/18 14:20:22;;;;;;;5.68;4.22;;;;;;;;;;4891380;29;21933;-87
2023/01/18 14:22:54;;;;;;;;;;;;;;;;;;4913079;29;20044;-87
2023/01/18 14:25:40;;;;;;;6.00;4.35;;;;;;;;;;4897693;29;19931;-87
2023/01/18 14:28:16;;;;;;;9.40;4.72;;;;;;;;;;4896346;29;20431;-87
2023/01/18 14:30:47;;;;;;;6.95;4.55;;;;;;;;;;4909299;29;20052;-87
2023/01/18 14:33:18;;;;;;;6.90;5.13;;;;;;;;;;4928094;29;20048;-87
2023/01/18 14:35:52;;;;;;;9.48;5.22;;;;;;;;;;4896069;29;20637;-86
2023/01/18 14:38:20;;;;;;;11.20;6.53;;;;;;;;;;4891939;29;20048;-87
2023/01/18 14:40:48;;;;;;;6.68;5.97;;;;;;;;;;4897206;29;20044;-87
2023/01/18 14:43:24;;;;;;;10.93;6.18;;;;;;;;;;4916275;29;20051;-89
2023/01/18 14:45:59;;;;;;;7.32;6.43;;;;;;;;;;4924172;29;20055;-87
2023/01/18 14:48:30;;;;;;;11.93;7.63;;;;;;;;;;4908643;29;20052;-88
2023/01/18 14:51:02;;;;;;;11.05;6.05;;;;;;;;;;4912631;29;20063;-88
2023/01/18 14:53:44;;;;;;;10.52;6.25;;;;;;;;;;4926234;29;20248;-87
2023/01/18 14:56:16;;;;;;;9.95;7.32;;;;;;;;;;4912814;29;20047;-87
2023/01/18 14:58:51;;;;;;;14.75;7.03;;;;;;;;;;4912602;29;20419;-87
2023/01/18 15:01:30;;;;;;;12.85;7.30;;;;;;;;;;4896483;29;20062;-87
2023/01/18 15:04:00;;;;;;;10.88;5.25;;;;;;;;;;4914412;29;20533;-87
2023/01/18 15:06:36;;;;;;;13.00;7.57;;;;;;;;;;4912281;29;20051;-87
2023/01/18 15:09:08;;;;;;;7.80;6.68;;;;;;;;;;4896465;29;20071;-87
2023/01/18 15:11:36;;;;;;;11.57;6.30;;;;;;;;;;4894304;29;20059;-87
2023/01/18 15:14:11;;;;;;;11.60;7.45;;;;;;;;;;4921725;29;20044;-87
2023/01/18 15:16:42;;;;;;;8.65;6.15;;;;;;;;;;4912114;29;20051;-87
2023/01/18 15:19:15;;;;;;;10.68;7.35;;;;;;;;;;4898294;29;20056;-87
2023/01/18 15:21:43;;;;;;;8.88;6.75;;;;;;;;;;4897517;29;20429;-87
2023/01/18 15:24:16;;;;;;;13.25;7.60;;;;;;;;;;4896544;29;20403;-86
2023/01/18 15:26:50;;;;;;;11.70;7.35;;;;;;;;;;4896439;29;20449;-87
2023/01/18 15:29:19;;;;;;;11.35;7.18;;;;;;;;;;4897621;29;20052;-86
2023/01/18 15:31:53;;;;;;;10.60;6.13;;;;;;;;;;4905894;29;20052;-87
2023/01/18 15:34:25;;;;;;;8.93;7.13;;;;;;;;;;4896536;29;20051;-88
2023/01/18 15:36:59;;;;;;;9.90;7.30;;;;;;;;;;4904905;29;20426;-87
2023/01/18 15:39:27;;;;;;;14.10;7.75;;;;;;;;;;4894143;29;20056;-87
2023/01/18 15:41:55;;;;;;;8.40;7.60;;;;;;;;;;4910422;29;20423;-87
2023/01/18 15:44:42;;;;;;;16.20;8.60;;;;;;;;;;4916226;29;20059;-87